• Join FlightAware (Why Join?)
  • Login
  • US Flag 
03:15AM EDT


 

Airport Tracker/Info


-or-


 

Live Flight TrackerFlight Track Log ✈ N675MC ✈ 09-Sep-2013 ✈ KTUL - KATL

Flight Track Log - Related Links

Times and Time Zones

All times are in EDT time to prevent confusion due to time zone crossing. See the N675MC flight status page for this flight to view local times or setup timezone preferences in your user account.

Time Position Orientation Groundspeed Altitude Reporting Facility
EDT Latitude Longitude Course Direction KTS MPH feet Rate Location/Type
04:46PM 36.1844 -95.8828 72° East 138 159 1,700  Level Kansas City Center
04:47PM 36.1614 -95.8833 181° South 171 197 2,200 1,500 Climbing Kansas City Center
04:48PM 36.1492 -95.8150 102° East 254 292 4,000 2,220 Climbing Kansas City Center
04:49PM 36.1747 -95.7236 71° East 275 316 6,700 2,460 Climbing Kansas City Center
04:49PM 36.1750 -95.7244 292° West 260 299 6,600 2,520 Descending Kansas City Center
04:50PM 36.1046 -95.3451 75° East  Level Estimated
04:50PM 36.1703 -95.6297 94° East 288 331 9,400  Level Kansas City Center
04:51PM 36.0808 -95.2096 73° East  Level Estimated
04:51PM 36.1436 -95.5314 109° East 300 345 11,300  Level Kansas City Center
04:52PM 36.0568 -95.0741 72° East  Level Estimated
04:52PM 36.1122 -95.4217 109° East 325 374 14,100  Level Kansas City Center
04:53PM 36.0831 -95.3044 107° East 343 395 16,500 2,460 Climbing Kansas City Center
04:54PM 36.0558 -95.1583 103° East 361 415 19,300 2,340 Climbing Kansas City Center
04:55PM 36.0303 -95.0311 104° East 376 433 21,400 1,860 Climbing Kansas City Center
04:56PM 36.0044 -94.8997 104° East 388 447 23,200 1,620 Climbing Kansas City Center
04:57PM 35.9747 -94.7669 105° East 398 458 24,800 1,560 Climbing Kansas City Center
04:58PM 35.9453 -94.6300 105° East 408 470 26,500 1,560 Climbing Kansas City Center
04:59PM 35.9242 -94.5250 104° East 402 463 27,600 1,080 Climbing Memphis Center
05:00PM 35.8956 -94.3850 104° East 413 475 28,400 660 Climbing Memphis Center
05:01PM 35.8669 -94.2378 103° East 425 489 29,000 300 Climbing Memphis Center
05:02PM 35.8381 -94.0878 103° East 436 502 29,000  Level Memphis Center
05:03PM 35.8075 -93.9200 103° East 442 509 29,000  Level Memphis Center
05:04PM 35.7700 -93.7728 107° East 448 516 29,000  Level Memphis Center
05:05PM 35.7322 -93.6253 107° East 453 521 29,000  Level Memphis Center
05:06PM 35.6964 -93.4781 107° East 448 516 29,000  Level Memphis Center
05:07PM 35.6581 -93.3336 108° East 448 516 29,000  Level Memphis Center
05:08PM 35.6197 -93.1919 108° East 442 509 29,000  Level Memphis Center
05:09PM 35.5833 -93.0425 107° East 448 516 29,000  Level Memphis Center
05:10PM 35.5469 -92.8933 107° East 453 521 29,000  Level Memphis Center
05:11PM 35.5189 -92.7319 102° East 453 521 29,000  Level Memphis Center
05:12PM 35.5089 -92.5939 95° East 458 527 29,000  Level Memphis Center
05:13PM 35.4969 -92.4353 95° East 463 533 29,000  Level Memphis Center
05:14PM 35.4850 -92.2794 95° East 463 533 29,000  Level Memphis Center
05:15PM 35.4747 -92.1239 95° East 463 533 29,000  Level Memphis Center
05:16PM 35.4622 -91.9656 95° East 463 533 29,000  Level Memphis Center
05:17PM 35.4411 -91.8122 100° East 463 533 29,000  Level Memphis Center
05:18PM 35.4158 -91.6564 101° East 463 533 29,000  Level Memphis Center
05:19PM 35.3817 -91.5031 105° East 468 539 29,000  Level Memphis Center
05:20PM 35.3497 -91.3497 104° East 468 539 29,000  Level Memphis Center
05:21PM 35.3194 -91.1967 104° East 468 539 29,000  Level Memphis Center
05:22PM 35.2831 -91.0439 106° East 468 539 29,000  Level Memphis Center
05:23PM 35.2442 -90.8961 108° East 462 532 29,000  Level Memphis Center
05:24PM 35.1967 -90.7508 112° Southeast 462 532 29,000  Level Memphis Center
05:25PM 35.1572 -90.5958 107° East 470 541 29,000  Level Memphis Center
05:26PM 35.1261 -90.4408 104° East 465 535 29,000  Level Memphis Center
05:27PM 35.0886 -90.2733 105° East 465 535 29,000  Level Memphis Center
05:28PM 35.0531 -90.1186 106° East 465 535 29,000  Level Memphis Center
05:29PM 35.0150 -89.9692 107° East 471 542 29,000  Level Memphis Center
05:30PM 34.9997 -89.8069 97° East 471 542 29,000  Level Memphis Center
05:31PM 34.9739 -89.6425 101° East 481 554 29,000  Level Memphis Center
05:32PM 34.9481 -89.4983 102° East 485 558 29,000  Level Memphis Center
05:33PM 34.9197 -89.3414 102° East 479 551 29,000  Level Memphis Center
05:34PM 34.8933 -89.1847 102° East 474 545 29,000  Level Memphis Center
05:35PM 34.8667 -89.0283 102° East 469 540 29,000  Level Memphis Center
05:36PM 34.8397 -88.8542 101° East 469 540 29,000  Level Memphis Center
05:37PM 34.8167 -88.6953 100° East 474 545 29,000  Level Memphis Center
05:38PM 34.8019 -88.5411 97° East 468 539 29,000  Level Memphis Center
05:39PM 34.7897 -88.4075 96° East 438 504 29,000  Level Memphis Center
05:40PM 34.7789 -88.2661 95° East 417 480 29,000  Level Memphis Center
05:41PM 34.7661 -88.1222 96° East 417 480 29,000  Level Memphis Center
05:42PM 34.7531 -87.9836 97° East 417 480 29,000  Level Memphis Center
05:43PM 34.7272 -87.8428 103° East 422 486 29,000  Level Memphis Center
05:44PM 34.7056 -87.7072 101° East 417 480 29,000  Level Memphis Center
05:45PM 34.6797 -87.5742 103° East 434 499 29,000  Level Memphis Center
05:47PM 34.6214 -87.2950 104° East 490 564 29,000  Level Atlanta Center
05:48PM 34.5875 -87.1522 106° East 477 549 29,000  Level Atlanta Center
05:49PM 34.5831 -87.0008 92° East 444 511 29,000  Level Atlanta Center
05:50PM 34.5825 -86.8444 90° East 449 517 29,000  Level Atlanta Center
05:51PM 34.5797 -86.6878 91° East 455 524 29,000 -60 Level Atlanta Center
05:52PM 34.5600 -86.5358 99° East 460 529 28,900 -540 Descending Atlanta Center
05:53PM 34.5275 -86.3811 104° East 465 535 28,000 -960 Descending Atlanta Center
05:54PM 34.4822 -86.2361 111° Southeast 465 535 27,000 -1,320 Descending Atlanta Center
05:55PM 34.4367 -86.0964 112° Southeast 460 529 25,400 -1,440 Descending Atlanta Center
05:56PM 34.3931 -85.9569 111° Southeast 452 520 24,200 -1,140 Descending Atlanta Center
05:57PM 34.3511 -85.8203 110° East 441 507 23,200 -1,200 Descending Atlanta Center
05:58PM 34.3092 -85.6886 111° Southeast 426 490 21,900 -2,160 Descending Atlanta Center
05:59PM 34.2711 -85.5597 110° East 413 475 18,900 -2,820 Descending Atlanta Center
06:00PM 34.2392 -85.4358 107° East 407 468 16,300 -2,460 Descending Atlanta Center
06:01PM 34.2133 -85.3122 104° East 390 449 14,000 -1,500 Descending Atlanta Center
06:02PM 34.1831 -85.2089 109° East 350 403 13,300 -540 Descending Atlanta Center
06:03PM 34.1592 -85.1031 105° East 329 379 13,000 -180 Descending Atlanta Center
06:04PM 34.1181 -85.0150 119° Southeast 307 353 13,000 -660 Level Atlanta Center
06:05PM 34.0561 -84.9489 139° Southeast 295 339 11,700 -1,560 Descending Atlanta Center
06:06PM 33.9939 -84.8856 140° Southeast 295 339 9,900 -1,440 Descending Atlanta Center
06:07PM 33.9317 -84.8225 140° Southeast 295 339 8,900 -1,020 Descending Atlanta Center
06:08PM 33.8778 -84.7694 141° Southeast 290 334 7,900 -1,200 Descending Atlanta Center
06:09PM 33.8069 -84.7339 157° South 278 320 6,500 -1,500 Descending Atlanta Center
06:10PM 33.7361 -84.7008 159° South 278 320 4,900 -1,320 Descending Atlanta Center
06:11PM 33.6667 -84.6333 141° Southeast 225 259 3,800 -780 Descending Atlanta TRACON
06:12PM 33.6500 -84.5833 112° Southeast 212 244 3,300 -900 Descending Atlanta TRACON
06:13PM 33.6500 -84.5167 90° East 164 189 2,100 -900 Descending Atlanta TRACON
06:14PM 33.6500 -84.4667 90° East 132 152 1,500 -600 Descending Atlanta TRACON